createdAt,value
2023-09-29T00:01:01.441Z,51.67
2023-09-29T00:03:46.414Z,51.71
2023-09-29T00:06:31.315Z,51.09
2023-09-29T00:09:16.255Z,51.23
2023-09-29T00:12:01.248Z,50.78
2023-09-29T00:14:46.221Z,50.33
2023-09-29T00:17:31.253Z,50.60
2023-09-29T00:20:16.127Z,51.64
2023-09-29T00:23:01.174Z,51.64
2023-09-29T00:25:46.152Z,51.95
2023-09-29T00:28:31.171Z,52.37
2023-09-29T00:31:16.148Z,52.91
2023-09-29T00:34:01.143Z,53.08
2023-09-29T00:36:46.105Z,52.89
2023-09-29T00:39:31.033Z,53.07
2023-09-29T00:42:16.186Z,52.85
2023-09-29T00:45:01.143Z,52.93
2023-09-29T00:47:46.145Z,52.45
2023-09-29T00:50:31.413Z,52.25
2023-09-29T00:53:16.329Z,52.18
2023-09-29T00:56:01.278Z,52.13
2023-09-29T00:58:46.224Z,51.72
2023-09-29T01:01:31.237Z,51.56
2023-09-29T01:04:16.164Z,51.04
2023-09-29T01:07:01.105Z,51.12
2023-09-29T01:09:46.117Z,51.16
2023-09-29T01:12:31.000Z,51.57
2023-09-29T01:15:16.089Z,51.87
2023-09-29T01:18:01.166Z,52.56
2023-09-29T01:20:46.129Z,52.87
2023-09-29T01:23:31.065Z,51.94
2023-09-29T01:26:16.069Z,51.63
2023-09-29T01:29:00.945Z,52.03
2023-09-29T01:31:45.948Z,51.89
2023-09-29T01:34:31.085Z,52.16
2023-09-29T01:37:16.022Z,52.54
2023-09-29T01:40:01.035Z,52.51
2023-09-29T01:42:45.931Z,52.69
2023-09-29T01:45:31.097Z,52.43
2023-09-29T01:48:16.184Z,52.12
2023-09-29T01:51:01.038Z,51.90
2023-09-29T01:53:46.032Z,52.07
2023-09-29T01:56:31.000Z,51.86
2023-09-29T01:59:16.026Z,52.24
2023-09-29T02:02:00.984Z,51.74
2023-09-29T02:04:46.005Z,51.87
2023-09-29T02:07:30.943Z,52.65
2023-09-29T02:10:15.925Z,52.51
2023-09-29T02:13:00.984Z,52.44
2023-09-29T02:15:45.970Z,52.81
2023-09-29T02:18:31.155Z,52.10
2023-09-29T02:21:15.846Z,52.00
2023-09-29T02:24:00.947Z,51.74
2023-09-29T02:26:45.896Z,51.94
2023-09-29T02:29:30.789Z,52.33
2023-09-29T02:32:15.749Z,52.46
2023-09-29T02:35:00.771Z,51.76
2023-09-29T02:37:45.606Z,52.23
2023-09-29T02:40:30.671Z,52.20
2023-09-29T02:43:15.767Z,52.20
2023-09-29T02:46:00.693Z,52.61
2023-09-29T02:48:45.769Z,52.38
2023-09-29T02:51:30.513Z,52.00
2023-09-29T02:54:15.466Z,52.03
2023-09-29T02:57:00.421Z,52.42
2023-09-29T02:59:45.517Z,51.71
2023-09-29T03:02:30.490Z,51.69
2023-09-29T03:05:15.799Z,50.96
2023-09-29T03:08:01.036Z,51.10
2023-09-29T03:10:45.918Z,51.27
2023-09-29T03:13:30.967Z,50.63
2023-09-29T03:16:16.015Z,50.31
2023-09-29T03:19:00.884Z,50.40
2023-09-29T03:21:45.708Z,51.37
2023-09-29T03:24:31.035Z,51.21
2023-09-29T03:27:16.159Z,51.09
2023-09-29T03:30:01.333Z,51.31
2023-09-29T03:32:46.439Z,51.08
2023-09-29T03:35:31.350Z,50.80
2023-09-29T03:38:16.380Z,50.85
2023-09-29T03:41:01.216Z,51.40
2023-09-29T03:43:46.353Z,51.15
2023-09-29T03:46:31.232Z,51.21
2023-09-29T03:49:16.127Z,51.73
2023-09-29T03:52:01.134Z,51.82
2023-09-29T03:54:45.926Z,52.07
2023-09-29T03:57:30.887Z,52.27
2023-09-29T04:00:15.681Z,51.86
2023-09-29T04:03:00.834Z,51.67
2023-09-29T04:05:45.731Z,51.47
2023-09-29T04:08:30.945Z,51.53
2023-09-29T04:11:15.750Z,51.41
2023-09-29T04:14:00.799Z,51.74
2023-09-29T04:16:45.958Z,51.40
2023-09-29T04:19:30.868Z,51.89
2023-09-29T04:22:16.033Z,51.70
2023-09-29T04:25:00.892Z,51.29
2023-09-29T04:27:45.907Z,51.11
2023-09-29T04:30:30.903Z,51.44
2023-09-29T04:33:15.868Z,51.19
2023-09-29T04:36:00.656Z,51.41
2023-09-29T04:38:45.491Z,51.50
2023-09-29T04:41:30.632Z,51.54
2023-09-29T04:44:15.477Z,51.87
2023-09-29T04:47:00.380Z,52.11
2023-09-29T04:49:45.273Z,52.20
2023-09-29T04:52:30.314Z,51.95
2023-09-29T04:55:15.267Z,51.90
2023-09-29T04:58:00.368Z,51.95
2023-09-29T05:00:45.332Z,51.82
2023-09-29T05:03:30.395Z,51.52
2023-09-29T05:06:15.339Z,51.27
2023-09-29T05:09:00.240Z,51.14
2023-09-29T05:11:45.293Z,51.67
2023-09-29T05:14:30.209Z,51.27
2023-09-29T05:17:15.315Z,50.89
2023-09-29T05:20:00.246Z,51.46
2023-09-29T05:22:45.132Z,51.03
2023-09-29T05:25:30.119Z,50.39
2023-09-29T05:28:15.056Z,49.42
2023-09-29T05:31:00.083Z,48.53
2023-09-29T05:33:45.082Z,48.30
2023-09-29T05:36:29.953Z,48.38
2023-09-29T05:39:14.793Z,49.29
2023-09-29T05:41:59.535Z,49.34
2023-09-29T05:44:44.313Z,49.55
2023-09-29T05:47:29.380Z,50.02
2023-09-29T05:50:19.029Z,49.82
2023-09-29T05:53:10.628Z,49.63
2023-09-29T05:55:55.981Z,49.49
2023-09-29T05:58:40.902Z,49.41
2023-09-29T06:01:25.915Z,49.34
2023-09-29T06:04:11.124Z,49.32
2023-09-29T06:06:55.889Z,49.33
2023-09-29T06:09:40.874Z,48.93
2023-09-29T06:12:26.044Z,48.67
2023-09-29T06:15:10.988Z,48.35
2023-09-29T06:17:55.976Z,48.58
2023-09-29T06:20:40.857Z,48.62
2023-09-29T06:23:25.903Z,47.46
2023-09-29T06:26:10.909Z,45.63
2023-09-29T06:28:55.819Z,43.55
2023-09-29T06:31:40.849Z,45.43
2023-09-29T06:34:25.772Z,45.99
2023-09-29T06:37:10.906Z,46.64
2023-09-29T06:39:55.838Z,46.34
2023-09-29T06:42:40.869Z,47.91
2023-09-29T06:45:29.020Z,47.92
2023-09-29T06:48:19.564Z,48.70
2023-09-29T06:51:05.349Z,49.25
2023-09-29T06:53:50.797Z,48.76
2023-09-29T06:56:36.061Z,48.62
2023-09-29T06:59:21.057Z,48.31
2023-09-29T07:02:06.127Z,48.16
2023-09-29T07:04:51.026Z,48.33
2023-09-29T07:07:36.021Z,47.44
2023-09-29T07:10:20.945Z,45.21
2023-09-29T07:13:06.016Z,43.41
2023-09-29T07:15:50.980Z,44.02
2023-09-29T07:18:35.963Z,43.29
2023-09-29T07:21:20.908Z,43.24
2023-09-29T07:24:05.890Z,42.58
2023-09-29T07:26:51.253Z,42.54
2023-09-29T07:29:36.481Z,43.20
2023-09-29T07:32:21.464Z,43.56
2023-09-29T07:35:06.340Z,42.43
2023-09-29T07:37:51.292Z,42.21
2023-09-29T07:40:36.257Z,40.60
2023-09-29T07:43:21.301Z,41.65
2023-09-29T07:46:06.230Z,39.82
2023-09-29T07:48:51.179Z,40.20
2023-09-29T07:51:36.100Z,41.88
2023-09-29T07:54:21.093Z,42.96
2023-09-29T07:57:06.094Z,44.59
2023-09-29T07:59:51.103Z,43.41
2023-09-29T08:02:36.177Z,43.05
2023-09-29T08:05:21.018Z,43.82
2023-09-29T08:08:05.930Z,43.55
2023-09-29T08:10:50.984Z,42.65
2023-09-29T08:13:35.988Z,43.22
2023-09-29T08:16:21.196Z,42.84
2023-09-29T08:19:06.064Z,43.80
2023-09-29T08:21:51.092Z,43.04
2023-09-29T08:24:35.964Z,43.50
2023-09-29T08:27:21.208Z,44.42
2023-09-29T08:30:06.352Z,44.31
2023-09-29T08:32:59.647Z,44.08
2023-09-29T08:35:51.707Z,43.95
2023-09-29T08:38:36.678Z,43.80
2023-09-29T08:41:21.612Z,42.81
2023-09-29T08:44:08.404Z,42.32
2023-09-29T08:46:53.577Z,42.26
2023-09-29T08:49:49.425Z,43.28
2023-09-29T08:52:35.263Z,41.84
2023-09-29T08:55:20.189Z,41.98
2023-09-29T08:58:05.275Z,40.95
2023-09-29T09:00:53.225Z,39.30
2023-09-29T09:03:38.480Z,40.84
2023-09-29T09:06:23.329Z,41.24
2023-09-29T09:09:08.268Z,43.68
2023-09-29T09:11:53.343Z,42.81
2023-09-29T09:14:38.470Z,44.42
2023-09-29T09:17:23.462Z,42.96
2023-09-29T09:20:08.769Z,43.21
2023-09-29T09:22:53.824Z,41.54
2023-09-29T09:25:38.818Z,41.02
2023-09-29T09:28:23.590Z,41.11
2023-09-29T09:31:08.607Z,40.66
2023-09-29T09:33:53.669Z,39.36
2023-09-29T09:36:38.502Z,41.15
2023-09-29T09:39:23.738Z,41.28
2023-09-29T09:42:08.629Z,41.46
2023-09-29T09:44:53.617Z,39.97
2023-09-29T09:47:38.470Z,40.43
2023-09-29T09:50:23.390Z,40.49
2023-09-29T09:53:08.306Z,39.27
2023-09-29T09:55:53.447Z,39.41
2023-09-29T09:58:38.348Z,38.75
2023-09-29T10:01:23.425Z,39.22
2023-09-29T10:04:11.526Z,38.92
2023-09-29T10:06:56.761Z,40.11
2023-09-29T10:09:41.608Z,39.46
2023-09-29T10:12:26.614Z,39.98
2023-09-29T10:15:11.650Z,38.87
2023-09-29T10:17:57.758Z,39.12
2023-09-29T10:20:42.560Z,38.66
2023-09-29T10:23:27.566Z,38.40
2023-09-29T10:26:12.716Z,37.96
2023-09-29T10:28:57.707Z,38.36
2023-09-29T10:31:42.672Z,37.79
2023-09-29T10:34:27.680Z,39.27
2023-09-29T10:37:12.598Z,38.21
2023-09-29T10:39:57.476Z,37.86
2023-09-29T10:42:42.506Z,38.07
2023-09-29T10:45:27.469Z,38.20
2023-09-29T10:48:12.592Z,39.59
2023-09-29T10:50:57.438Z,38.00
2023-09-29T10:53:42.255Z,37.58
2023-09-29T10:56:27.242Z,37.59
2023-09-29T10:59:12.235Z,37.51
2023-09-29T11:01:57.245Z,36.50
2023-09-29T11:04:42.237Z,36.18
2023-09-29T11:07:27.224Z,35.90
2023-09-29T11:10:12.189Z,36.44
2023-09-29T11:12:56.988Z,37.59
2023-09-29T11:15:41.727Z,36.21
2023-09-29T11:18:26.793Z,35.53
2023-09-29T11:21:11.678Z,35.94
2023-09-29T11:23:56.768Z,35.63
2023-09-29T11:26:42.163Z,34.73
2023-09-29T11:29:26.972Z,34.76
2023-09-29T11:32:11.909Z,35.26
2023-09-29T11:34:56.751Z,35.99
2023-09-29T11:37:41.782Z,34.94
2023-09-29T11:40:26.661Z,35.41
2023-09-29T11:43:11.599Z,34.76
2023-09-29T11:45:56.564Z,34.10
2023-09-29T11:48:41.496Z,33.84
2023-09-29T11:51:26.702Z,32.96
2023-09-29T11:54:11.637Z,32.41
2023-09-29T11:56:56.851Z,32.54
2023-09-29T11:59:41.806Z,33.18
2023-09-29T12:02:26.774Z,33.58
2023-09-29T12:05:11.549Z,33.70
2023-09-29T12:07:56.393Z,33.67
2023-09-29T12:10:41.404Z,33.33
2023-09-29T12:13:26.251Z,30.78
2023-09-29T12:16:11.298Z,31.55
2023-09-29T12:18:56.071Z,31.39
2023-09-29T12:21:40.998Z,31.86
2023-09-29T12:24:25.951Z,32.16
2023-09-29T12:27:11.137Z,33.92
2023-09-29T12:29:56.326Z,33.96
2023-09-29T12:32:41.196Z,34.90
2023-09-29T12:35:26.366Z,34.30
2023-09-29T12:38:11.294Z,34.79
2023-09-29T12:40:56.331Z,34.83
2023-09-29T12:43:41.249Z,33.43
2023-09-29T12:46:26.379Z,33.65
2023-09-29T12:49:11.411Z,33.10
2023-09-29T12:52:01.365Z,32.35
2023-09-29T12:54:47.124Z,31.82
2023-09-29T12:57:32.064Z,33.36
2023-09-29T13:00:17.061Z,33.58
2023-09-29T13:03:02.114Z,31.78
2023-09-29T13:05:46.966Z,33.08
2023-09-29T13:08:32.068Z,33.42
2023-09-29T13:11:16.907Z,32.87
2023-09-29T13:14:01.827Z,32.52
2023-09-29T13:16:46.723Z,33.01
2023-09-29T13:19:31.818Z,33.46
2023-09-29T13:22:16.725Z,33.29
2023-09-29T13:25:01.781Z,34.80
2023-09-29T13:27:46.811Z,34.75
2023-09-29T13:30:39.949Z,34.46
2023-09-29T13:33:32.496Z,34.47
2023-09-29T13:36:17.349Z,34.68
2023-09-29T13:39:02.455Z,33.67
2023-09-29T13:41:47.460Z,33.11
2023-09-29T13:44:32.460Z,33.32
2023-09-29T13:47:17.577Z,33.97
2023-09-29T13:50:02.519Z,33.24
2023-09-29T13:52:47.782Z,34.90
2023-09-29T13:55:32.699Z,33.73
2023-09-29T13:58:17.763Z,33.30
2023-09-29T14:01:02.742Z,33.77
2023-09-29T14:03:47.615Z,34.16
2023-09-29T14:06:32.554Z,34.41
2023-09-29T14:09:18.184Z,34.21
2023-09-29T14:12:03.633Z,35.65
2023-09-29T14:14:48.611Z,31.96
2023-09-29T14:17:33.589Z,33.16
2023-09-29T14:20:18.561Z,35.61
2023-09-29T14:23:03.521Z,34.15
2023-09-29T14:25:48.491Z,33.50
2023-09-29T14:28:33.336Z,34.54
2023-09-29T14:31:18.312Z,34.02
2023-09-29T14:34:03.273Z,33.67
2023-09-29T14:36:48.237Z,33.17
2023-09-29T14:39:33.164Z,34.76
2023-09-29T14:42:18.188Z,35.30
2023-09-29T14:45:03.033Z,35.58
2023-09-29T14:47:48.200Z,36.09
2023-09-29T14:50:32.980Z,35.38
2023-09-29T14:53:17.931Z,35.47
2023-09-29T14:56:03.031Z,36.51
2023-09-29T14:58:47.788Z,37.28
2023-09-29T15:01:32.999Z,36.30
2023-09-29T15:04:17.946Z,37.58
2023-09-29T15:07:02.933Z,38.53
2023-09-29T15:09:47.891Z,38.80
2023-09-29T15:12:33.052Z,38.04
2023-09-29T15:15:18.025Z,37.76
2023-09-29T15:18:03.132Z,37.05
2023-09-29T15:20:48.237Z,36.87
2023-09-29T15:23:33.098Z,37.54
2023-09-29T15:26:18.201Z,39.59
2023-09-29T15:29:03.122Z,38.71
2023-09-29T15:31:48.240Z,37.62
2023-09-29T15:34:33.248Z,37.97
2023-09-29T15:37:18.231Z,39.86
2023-09-29T15:40:03.353Z,39.45
2023-09-29T15:42:48.166Z,40.61
2023-09-29T15:45:33.278Z,39.78
2023-09-29T15:48:18.321Z,40.05
2023-09-29T15:51:03.005Z,39.68
2023-09-29T15:53:47.934Z,41.83
2023-09-29T15:56:32.929Z,41.22
2023-09-29T15:59:17.934Z,40.88
2023-09-29T16:02:11.854Z,40.69
2023-09-29T16:05:05.082Z,40.67
2023-09-29T16:07:49.928Z,40.10
2023-09-29T16:13:19.845Z,41.14
2023-09-29T16:16:04.904Z,42.07
2023-09-29T16:18:49.859Z,40.89
2023-09-29T16:21:34.757Z,40.75
2023-09-29T16:24:19.779Z,43.03
2023-09-29T16:27:04.649Z,41.61
2023-09-29T16:29:49.669Z,41.87
2023-09-29T16:32:34.636Z,42.19
2023-09-29T16:35:34.340Z,41.46
2023-09-29T16:38:21.720Z,42.20
2023-09-29T16:41:06.798Z,41.53
2023-09-29T16:43:51.904Z,42.62
2023-09-29T16:46:36.690Z,42.04
2023-09-29T16:49:21.686Z,42.38
2023-09-29T16:52:06.575Z,42.30
2023-09-29T16:54:51.718Z,41.22
2023-09-29T16:57:36.713Z,42.54
2023-09-29T17:00:21.828Z,43.48
2023-09-29T17:03:06.926Z,43.68
2023-09-29T17:05:51.976Z,42.71
2023-09-29T17:08:36.877Z,43.99
2023-09-29T17:11:21.744Z,44.47
2023-09-29T17:14:06.853Z,45.29
2023-09-29T17:16:51.818Z,44.56
2023-09-29T17:19:36.928Z,44.26
2023-09-29T17:22:21.932Z,44.25
2023-09-29T17:25:06.853Z,44.30
2023-09-29T17:27:52.008Z,44.53
2023-09-29T17:30:36.894Z,44.40
2023-09-29T17:33:21.878Z,45.48
2023-09-29T17:36:06.734Z,45.23
2023-09-29T17:38:51.809Z,45.10
2023-09-29T17:41:36.642Z,45.71
2023-09-29T17:44:21.620Z,46.70
2023-09-29T17:47:06.609Z,46.53
2023-09-29T17:49:51.658Z,46.32
2023-09-29T17:52:36.766Z,46.24
2023-09-29T17:55:21.654Z,46.41
2023-09-29T17:58:06.540Z,47.07
2023-09-29T18:00:51.503Z,47.68
2023-09-29T18:03:36.788Z,47.24
2023-09-29T18:06:21.560Z,47.49
2023-09-29T18:09:06.639Z,47.63
2023-09-29T18:11:51.515Z,47.74
2023-09-29T18:14:36.432Z,48.13
2023-09-29T18:17:21.538Z,48.27
2023-09-29T18:20:06.446Z,47.82
2023-09-29T18:22:51.485Z,47.55
2023-09-29T18:25:36.415Z,47.87
2023-09-29T18:28:21.479Z,48.21
2023-09-29T18:31:06.500Z,48.29
2023-09-29T18:33:51.554Z,48.40
2023-09-29T18:36:36.695Z,48.03
2023-09-29T18:39:21.692Z,47.68
2023-09-29T18:42:06.478Z,47.69
2023-09-29T18:44:51.489Z,48.08
2023-09-29T18:47:36.550Z,47.97
2023-09-29T18:50:21.501Z,47.57
2023-09-29T18:53:06.544Z,48.78
2023-09-29T18:55:52.667Z,48.28
2023-09-29T18:58:39.165Z,47.72
2023-09-29T19:01:24.140Z,47.66
2023-09-29T19:04:09.068Z,47.53
2023-09-29T19:06:54.274Z,48.29
2023-09-29T19:09:39.369Z,49.05
2023-09-29T19:12:24.213Z,48.45
2023-09-29T19:15:09.372Z,48.39
2023-09-29T19:17:54.469Z,48.59
2023-09-29T19:20:39.568Z,48.76
2023-09-29T19:23:24.463Z,49.23
2023-09-29T19:26:09.509Z,49.10
2023-09-29T19:28:54.517Z,50.17
2023-09-29T19:31:39.419Z,50.42
2023-09-29T19:34:24.391Z,50.58
2023-09-29T19:37:09.244Z,50.25
2023-09-29T19:39:54.115Z,49.96
2023-09-29T19:42:39.128Z,50.73
2023-09-29T19:45:24.206Z,50.14
2023-09-29T19:48:09.035Z,48.89
2023-09-29T19:50:53.819Z,49.75
2023-09-29T19:53:38.877Z,50.85
2023-09-29T19:56:23.819Z,49.98
2023-09-29T19:59:08.852Z,50.66
2023-09-29T20:01:53.812Z,49.69
2023-09-29T20:04:38.961Z,49.32
2023-09-29T20:07:23.812Z,49.21
2023-09-29T20:10:08.712Z,49.89
2023-09-29T20:12:53.603Z,49.91
2023-09-29T20:15:38.602Z,49.87
2023-09-29T20:18:23.505Z,49.99
2023-09-29T20:21:08.536Z,50.04
2023-09-29T20:23:53.525Z,49.92
2023-09-29T20:26:38.645Z,49.35
2023-09-29T20:29:23.649Z,48.81
2023-09-29T20:32:08.635Z,48.53
2023-09-29T20:34:53.621Z,47.58
2023-09-29T20:37:38.430Z,47.66
2023-09-29T20:40:23.400Z,48.89
2023-09-29T20:43:08.341Z,49.69
2023-09-29T20:45:53.359Z,48.62
2023-09-29T20:48:38.401Z,48.38
2023-09-29T20:51:23.205Z,49.49
2023-09-29T20:54:08.235Z,48.19
2023-09-29T20:56:52.957Z,48.86
2023-09-29T20:59:38.163Z,49.08
2023-09-29T21:02:23.129Z,48.74
2023-09-29T21:05:08.216Z,48.72
2023-09-29T21:07:53.339Z,49.62
2023-09-29T21:10:38.345Z,48.82
2023-09-29T21:13:23.409Z,49.16
2023-09-29T21:16:08.227Z,48.87
2023-09-29T21:18:54.198Z,48.31
2023-09-29T21:21:39.110Z,47.85
2023-09-29T21:24:24.066Z,47.95
2023-09-29T21:27:08.989Z,47.49
2023-09-29T21:29:53.906Z,47.12
2023-09-29T21:32:39.050Z,48.16
2023-09-29T21:35:23.885Z,49.20
2023-09-29T21:38:08.912Z,48.67
2023-09-29T21:40:53.759Z,48.85
2023-09-29T21:43:38.757Z,49.53
2023-09-29T21:46:24.859Z,48.78
2023-09-29T21:49:12.093Z,48.24
2023-09-29T21:51:57.099Z,49.29
2023-09-29T21:54:41.994Z,49.51
2023-09-29T21:57:27.167Z,49.96
2023-09-29T22:00:12.291Z,49.42
2023-09-29T22:02:57.495Z,49.43
2023-09-29T22:05:42.490Z,49.36
2023-09-29T22:08:27.529Z,50.43
2023-09-29T22:11:12.513Z,49.89
2023-09-29T22:13:57.564Z,49.31
2023-09-29T22:16:42.427Z,49.32
2023-09-29T22:19:27.872Z,49.29
2023-09-29T22:22:12.904Z,49.39
2023-09-29T22:24:57.819Z,49.99
2023-09-29T22:27:42.742Z,49.76
2023-09-29T22:30:27.861Z,50.18
2023-09-29T22:33:12.917Z,49.67
2023-09-29T22:35:57.700Z,49.89
2023-09-29T22:38:42.621Z,50.08
2023-09-29T22:41:27.708Z,50.11
2023-09-29T22:44:12.732Z,50.25
2023-09-29T22:46:57.778Z,50.69
2023-09-29T22:49:42.808Z,50.43
2023-09-29T22:52:27.850Z,50.75
2023-09-29T22:55:12.929Z,50.98
2023-09-29T22:57:57.924Z,51.36
2023-09-29T23:00:43.348Z,51.21
2023-09-29T23:03:28.508Z,51.25
2023-09-29T23:06:13.455Z,51.19
2023-09-29T23:08:58.590Z,51.33
2023-09-29T23:11:43.614Z,52.93
2023-09-29T23:14:28.452Z,52.67
2023-09-29T23:17:13.328Z,52.21
2023-09-29T23:19:58.394Z,53.23
2023-09-29T23:22:43.340Z,53.64
2023-09-29T23:25:28.467Z,53.17
2023-09-29T23:28:13.310Z,53.04
2023-09-29T23:30:58.270Z,53.59
2023-09-29T23:33:43.219Z,53.43
2023-09-29T23:36:28.108Z,53.23
2023-09-29T23:39:13.269Z,54.76
2023-09-29T23:41:58.024Z,54.16
2023-09-29T23:44:42.900Z,54.36
2023-09-29T23:47:27.835Z,54.81
2023-09-29T23:50:12.912Z,55.72
2023-09-29T23:52:58.049Z,55.39
2023-09-29T23:55:42.874Z,54.98
2023-09-29T23:58:27.956Z,55.16
